Time;durP1;ratioP1;P1;durP2;ratioP2;P2;SDS_P1;SDS_P2;PMS_P1;PMS_P2;Temp;Humidity;BMP_temperature;BMP_pressure;BME280_temperature;BME280_humidity;BME280_pressure;Samples;Min_cycle;Max_cycle;Signal;HPM_P1;HPM_P2
2021/01/16 19:59:05;;;;;;;8.50;5.43;;;;;;;;;;5092855;27;20348;-68
2021/01/16 20:01:34;;;;;;;39.45;7.95;;;;;;;;;;5087416;28;20040;-68
2021/01/16 20:04:00;;;;;;;12.38;6.60;;;;;;;;;;5087961;28;20025;-68
2021/01/16 20:06:25;;;;;;;16.42;7.03;;;;;;;;;;5088189;28;20043;-68
2021/01/16 20:08:51;;;;;;;21.17;6.60;;;;;;;;;;5087019;28;20550;-68
2021/01/16 20:11:16;;;;;;;20.80;6.93;;;;;;;;;;5078587;28;20052;-68
2021/01/16 20:13:42;;;;;;;14.77;6.43;;;;;;;;;;5087962;28;20385;-68
2021/01/16 20:16:07;;;;;;;23.35;6.50;;;;;;;;;;5071048;28;20077;-68
2021/01/16 20:18:32;;;;;;;22.20;6.53;;;;;;;;;;5088635;28;20160;-68
2021/01/16 20:20:58;;;;;;;25.38;7.10;;;;;;;;;;5089036;28;20115;-68
2021/01/16 20:23:23;;;;;;;17.17;7.07;;;;;;;;;;5087835;28;20107;-68
2021/01/16 20:25:49;;;;;;;30.70;7.57;;;;;;;;;;5087337;28;20119;-68
2021/01/16 20:28:14;;;;;;;19.58;6.68;;;;;;;;;;5088952;28;20143;-68
2021/01/16 20:30:40;;;;;;;22.10;5.72;;;;;;;;;;5088854;28;20115;-68
2021/01/16 20:33:06;;;;;;;23.50;6.60;;;;;;;;;;5087148;28;20036;-68
2021/01/16 20:35:32;;;;;;;19.63;6.07;;;;;;;;;;5087822;28;20046;-68
2021/01/16 20:37:58;;;;;;;16.60;5.78;;;;;;;;;;5087343;28;20034;-68
2021/01/16 20:40:23;;;;;;;19.02;6.95;;;;;;;;;;5070700;28;20103;-69
2021/01/16 20:42:49;;;;;;;13.23;5.40;;;;;;;;;;5070212;28;20031;-68
2021/01/16 20:45:18;;;;;;;19.60;6.07;;;;;;;;;;5070603;28;20047;-69
2021/01/16 20:47:50;;;;;;;16.40;5.55;;;;;;;;;;5070184;28;20032;-69
2021/01/16 20:50:16;;;;;;;16.00;5.07;;;;;;;;;;5087054;28;20119;-69
2021/01/16 20:52:42;;;;;;;13.70;5.40;;;;;;;;;;5070660;28;20094;-68
2021/01/16 20:55:08;;;;;;;12.05;5.03;;;;;;;;;;5086612;28;20043;-68
2021/01/16 20:57:34;;;;;;;13.57;5.22;;;;;;;;;;5098287;28;20043;-68
2021/01/16 20:59:59;;;;;;;9.55;4.55;;;;;;;;;;5107065;28;20462;-68
2021/01/16 21:03:25;;;;;;;12.98;5.28;;;;;;;;;;5048090;27;20887;-68
2021/01/16 21:05:51;;;;;;;9.48;5.68;;;;;;;;;;5046809;28;20045;-69
2021/01/16 21:08:16;;;;;;;9.93;4.45;;;;;;;;;;5048903;28;20037;-68
2021/01/16 21:10:42;;;;;;;12.98;5.03;;;;;;;;;;5008709;28;20384;-68
2021/01/16 21:13:08;;;;;;;9.90;5.13;;;;;;;;;;5011462;28;20060;-68
2021/01/16 21:15:34;;;;;;;7.60;3.80;;;;;;;;;;5024040;28;20500;-68
2021/01/16 21:17:59;;;;;;;11.43;4.80;;;;;;;;;;5024189;28;20072;-68
2021/01/16 21:20:24;;;;;;;8.68;4.20;;;;;;;;;;5007820;28;20038;-68
2021/01/16 21:22:55;;;;;;;7.55;3.75;;;;;;;;;;4991398;28;20396;-68
2021/01/16 21:25:20;;;;;;;8.63;3.97;;;;;;;;;;5007570;28;20034;-68
2021/01/16 21:27:46;;;;;;;7.47;4.47;;;;;;;;;;5008004;28;20034;-68
2021/01/16 21:30:13;;;;;;;9.32;3.88;;;;;;;;;;5024350;28;20030;-68
2021/01/16 21:32:38;;;;;;;9.32;4.22;;;;;;;;;;5007250;28;20509;-68
2021/01/16 21:35:05;;;;;;;7.65;4.30;;;;;;;;;;5007599;28;20041;-68
2021/01/16 21:37:32;;;;;;;7.88;4.03;;;;;;;;;;5007982;28;20030;-68
2021/01/16 21:39:59;;;;;;;5.65;4.10;;;;;;;;;;5021045;28;20029;-68
2021/01/16 21:42:24;;;;;;;7.43;4.00;;;;;;;;;;5030499;28;20053;-68
2021/01/16 21:44:50;;;;;;;8.50;4.15;;;;;;;;;;5010154;28;20370;-68
2021/01/16 21:47:15;;;;;;;6.47;3.83;;;;;;;;;;5021289;28;20112;-68
2021/01/16 21:49:45;;;;;;;6.70;4.32;;;;;;;;;;5027089;28;20084;-68
2021/01/16 21:52:11;;;;;;;5.57;4.07;;;;;;;;;;4998085;28;20093;-68
2021/01/16 21:54:36;;;;;;;13.50;3.90;;;;;;;;;;4991801;28;20034;-68
2021/01/16 21:57:05;;;;;;;5.22;3.80;;;;;;;;;;5033308;28;20037;-68
2021/01/16 21:59:30;;;;;;;8.55;3.80;;;;;;;;;;5030404;28;20110;-68
2021/01/16 22:01:56;;;;;;;5.38;3.67;;;;;;;;;;5039329;28;20060;-68
2021/01/16 22:04:21;;;;;;;5.32;3.28;;;;;;;;;;5028340;28;20040;-68
2021/01/16 22:06:47;;;;;;;6.90;3.97;;;;;;;;;;5027635;28;20037;-68
2021/01/16 22:09:17;;;;;;;5.53;3.10;;;;;;;;;;5013989;28;20023;-68
2021/01/16 22:11:43;;;;;;;7.60;3.55;;;;;;;;;;5016594;28;20037;-68
2021/01/16 22:14:09;;;;;;;5.55;3.15;;;;;;;;;;5000633;28;20420;-68
2021/01/16 22:16:42;;;;;;;5.85;3.63;;;;;;;;;;4997337;28;20033;-68
2021/01/16 22:19:09;;;;;;;4.63;3.47;;;;;;;;;;5013249;28;20148;-68
2021/01/16 22:21:35;;;;;;;4.30;3.00;;;;;;;;;;5013031;28;20153;-68
2021/01/16 22:24:00;;;;;;;5.22;3.17;;;;;;;;;;5016174;28;20121;-68
2021/01/16 22:26:26;;;;;;;6.65;3.42;;;;;;;;;;4996648;28;20042;-68
2021/01/16 22:28:51;;;;;;;5.70;3.35;;;;;;;;;;5012974;28;20026;-68
2021/01/16 22:31:20;;;;;;;4.30;2.88;;;;;;;;;;4996559;28;20389;-68
2021/01/16 22:33:45;;;;;;;7.15;3.20;;;;;;;;;;4993615;28;20037;-68
2021/01/16 22:36:11;;;;;;;5.50;3.50;;;;;;;;;;4999810;28;20104;-68
2021/01/16 22:38:36;;;;;;;5.18;2.95;;;;;;;;;;5013225;28;20038;-68
2021/01/16 22:41:02;;;;;;;4.70;3.10;;;;;;;;;;4997590;28;20034;-68
2021/01/16 22:43:27;;;;;;;5.45;3.03;;;;;;;;;;4996525;28;20488;-68
2021/01/16 22:45:53;;;;;;;3.47;2.85;;;;;;;;;;5011323;28;20101;-68
2021/01/16 22:48:18;;;;;;;3.97;2.90;;;;;;;;;;5013184;28;20041;-68
2021/01/16 22:50:44;;;;;;;5.78;3.05;;;;;;;;;;5012852;28;20041;-68
2021/01/16 22:53:11;;;;;;;4.97;3.00;;;;;;;;;;5033028;28;20025;-68
2021/01/16 22:55:37;;;;;;;5.20;2.90;;;;;;;;;;5030521;28;20033;-68
2021/01/16 22:58:03;;;;;;;4.22;2.88;;;;;;;;;;5033335;28;20483;-68
2021/01/16 23:00:38;;;;;;;5.57;3.08;;;;;;;;;;5028327;28;20502;-68
2021/01/16 23:03:09;;;;;;;3.67;2.88;;;;;;;;;;5023331;28;20041;-68
2021/01/16 23:05:40;;;;;;;4.47;2.92;;;;;;;;;;5032590;28;20029;-68
2021/01/16 23:08:05;;;;;;;5.93;3.17;;;;;;;;;;5013071;28;20558;-68
2021/01/16 23:10:30;;;;;;;3.88;3.33;;;;;;;;;;5022528;28;20029;-68
2021/01/16 23:12:56;;;;;;;4.38;2.70;;;;;;;;;;4996768;28;20084;-68
2021/01/16 23:15:21;;;;;;;3.75;2.90;;;;;;;;;;5013154;28;20030;-68
2021/01/16 23:17:47;;;;;;;3.70;2.55;;;;;;;;;;5012198;28;20092;-68
2021/01/16 23:20:14;;;;;;;4.40;2.72;;;;;;;;;;5012145;28;20030;-68
2021/01/16 23:22:39;;;;;;;5.70;2.92;;;;;;;;;;5023654;28;20033;-68
2021/01/16 23:25:06;;;;;;;3.60;2.78;;;;;;;;;;5010599;28;20110;-68
2021/01/16 23:27:31;;;;;;;4.03;3.25;;;;;;;;;;5011891;28;20030;-67
2021/01/16 23:29:57;;;;;;;4.68;2.75;;;;;;;;;;5011835;28;20030;-67
2021/01/16 23:32:22;;;;;;;3.20;2.58;;;;;;;;;;4994935;28;20046;-67
2021/01/16 23:34:48;;;;;;;3.83;3.08;;;;;;;;;;4995204;28;20038;-67
2021/01/16 23:37:14;;;;;;;4.30;2.55;;;;;;;;;;5012495;28;20033;-67
2021/01/16 23:39:39;;;;;;;3.47;2.50;;;;;;;;;;5010686;28;20554;-68
2021/01/16 23:42:06;;;;;;;3.70;2.92;;;;;;;;;;5013212;28;20041;-67
2021/01/16 23:44:32;;;;;;;3.67;2.50;;;;;;;;;;5014216;28;20072;-68
2021/01/16 23:46:57;;;;;;;3.30;2.50;;;;;;;;;;5012911;28;20037;-68
2021/01/16 23:49:23;;;;;;;3.70;2.30;;;;;;;;;;5010967;28;20021;-67
2021/01/16 23:51:48;;;;;;;4.70;2.75;;;;;;;;;;5011111;28;20048;-68
2021/01/16 23:54:14;;;;;;;4.03;2.55;;;;;;;;;;4996651;28;20084;-67
2021/01/16 23:56:39;;;;;;;4.13;2.67;;;;;;;;;;4978964;28;20037;-67
2021/01/16 23:59:05;;;;;;;3.88;2.47;;;;;;;;;;5012046;28;20407;-68
